Gallant, Alabama
Current Conditions -  °F | °C
As of 1:35 PM on Thursday 30 Oct 2014 (Local Time) from KGAD Reporting Station
Clear Clear  
Wind Chill: 64°   Ceiling: Unl
Heat Index: 64°   Visibility: 10mi
Dew Point: 34°   Wind: 6mph
Humidity: 32%   Direction: 310°NW
Pressure: 30.05"   Gusts: NA
Location:  34°N, 86.25°W
Report Text: KGAD 301835Z 31005KT 10SM CLR 18/01 A3005 RMK AO1
Loading
Personal Weather Stations






























Interactive Weather Map
Tropical Storm Tracking
New forecast layout! Learn more

10-Day Weather Forecast

Advertisements
Track Severe Weather on mobile